createdAt,value
2023-04-16T14:50:18.561Z,35.78
2023-04-16T14:52:55.856Z,37.70
2023-04-16T14:55:22.234Z,37.45
2023-04-16T14:57:48.704Z,31.77
2023-04-16T15:00:18.745Z,29.35
2023-04-16T15:02:46.381Z,37.95
2023-04-16T15:05:13.005Z,25.20
2023-04-16T15:07:39.569Z,32.95
2023-04-16T15:10:08.232Z,38.55
2023-04-16T15:12:34.651Z,37.38
2023-04-16T15:15:01.029Z,39.58
2023-04-16T15:17:27.526Z,30.40
2023-04-16T15:19:54.017Z,36.25
2023-04-16T15:22:20.490Z,41.22
2023-04-16T15:24:46.958Z,35.22
2023-04-16T15:27:14.649Z,25.42
2023-04-16T15:29:41.116Z,27.02
2023-04-16T15:32:07.510Z,34.50
2023-04-16T15:34:34.125Z,32.60
2023-04-16T15:37:00.617Z,33.70
2023-04-16T15:39:27.105Z,28.10
2023-04-16T15:42:01.445Z,32.58
2023-04-16T15:44:30.985Z,26.10
2023-04-16T15:46:57.808Z,29.60
2023-04-16T15:49:24.738Z,32.47
2023-04-16T15:51:51.963Z,29.00
2023-04-16T15:54:18.541Z,24.38
2023-04-16T15:56:46.592Z,26.23
2023-04-16T15:59:13.552Z,25.98
2023-04-16T16:01:40.051Z,29.83
2023-04-16T16:04:07.459Z,30.67
2023-04-16T16:06:34.281Z,24.67
2023-04-16T16:09:00.937Z,24.50
2023-04-16T16:11:27.637Z,24.55
2023-04-16T16:13:54.122Z,32.80
2023-04-16T16:16:21.744Z,23.38
2023-04-16T16:18:48.437Z,25.13
2023-04-16T16:21:14.862Z,24.60
2023-04-16T16:23:41.340Z,29.38
2023-04-16T16:26:07.829Z,28.85
2023-04-16T16:28:37.477Z,28.08
2023-04-16T16:31:07.317Z,27.67
2023-04-16T16:33:33.855Z,28.05
2023-04-16T16:36:00.589Z,31.00
2023-04-16T16:38:27.382Z,24.67
2023-04-16T16:40:53.853Z,26.42
2023-04-16T16:43:20.665Z,32.58
2023-04-16T16:45:47.185Z,29.08
2023-04-16T16:48:13.659Z,29.05
2023-04-16T16:50:40.159Z,32.20
2023-04-16T16:53:06.736Z,35.75
2023-04-16T16:55:33.249Z,34.63
2023-04-16T16:57:59.738Z,30.98
2023-04-16T17:00:26.256Z,36.92
2023-04-16T17:02:52.866Z,30.13
2023-04-16T17:05:19.913Z,35.03
2023-04-16T17:07:46.685Z,38.08
2023-04-16T17:10:19.745Z,39.60
2023-04-16T17:12:48.136Z,42.08
2023-04-16T17:15:14.785Z,32.42
2023-04-16T17:17:41.484Z,39.80
2023-04-16T17:20:09.564Z,34.97
2023-04-16T17:22:37.170Z,32.80
2023-04-16T17:25:03.937Z,31.58
2023-04-16T17:27:33.698Z,33.63
2023-04-16T17:30:05.298Z,33.72
2023-04-16T17:32:32.545Z,36.55
2023-04-16T17:35:00.189Z,33.30
2023-04-16T17:37:27.248Z,32.83
2023-04-16T17:39:53.731Z,36.05
2023-04-16T17:42:20.495Z,41.85
2023-04-16T17:44:47.236Z,38.65
2023-04-16T17:47:13.695Z,38.08
2023-04-16T17:49:40.276Z,35.38
2023-04-16T17:52:06.895Z,36.10
2023-04-16T17:54:49.806Z,36.40
2023-04-16T17:57:16.432Z,37.15
2023-04-16T17:59:42.976Z,36.42
2023-04-16T18:02:09.527Z,38.15
2023-04-16T18:04:36.356Z,41.75
2023-04-16T18:07:02.896Z,34.13
2023-04-16T18:09:29.991Z,33.10
2023-04-16T18:11:57.004Z,36.28
2023-04-16T18:14:23.582Z,30.33
2023-04-16T18:16:50.018Z,37.60
2023-04-16T18:19:16.567Z,40.70
2023-04-16T18:21:43.449Z,37.53
2023-04-16T18:24:10.432Z,41.65
2023-04-16T18:26:37.554Z,41.33
2023-04-16T18:29:05.521Z,39.47
2023-04-16T18:31:32.156Z,41.20
2023-04-16T18:33:58.764Z,40.88
2023-04-16T18:36:27.078Z,43.47
2023-04-16T18:39:01.615Z,41.83
2023-04-16T18:41:29.645Z,42.17
2023-04-16T18:43:56.253Z,46.58
2023-04-16T18:46:22.772Z,36.38
2023-04-16T18:48:49.249Z,38.25
2023-04-16T18:51:16.700Z,37.83
2023-04-16T18:53:44.343Z,39.65
2023-04-16T18:56:11.558Z,34.53
2023-04-16T18:58:38.087Z,37.60
2023-04-16T19:01:05.286Z,49.15
2023-04-16T19:03:32.079Z,45.55
2023-04-16T19:05:58.778Z,41.22
2023-04-16T19:08:25.312Z,40.17
2023-04-16T19:10:51.780Z,37.05
2023-04-16T19:13:18.275Z,43.15
2023-04-16T19:15:44.691Z,45.53
2023-04-16T19:18:11.140Z,40.50
2023-04-16T19:20:37.565Z,45.53
2023-04-16T19:23:05.567Z,41.55
2023-04-16T19:25:32.429Z,44.58
2023-04-16T19:27:58.858Z,43.88
2023-04-16T19:30:25.489Z,40.88
2023-04-16T19:32:54.572Z,42.95
2023-04-16T19:35:21.668Z,43.05
2023-04-16T19:37:48.044Z,44.10
2023-04-16T19:40:14.583Z,54.05
2023-04-16T19:42:41.228Z,47.03
2023-04-16T19:45:07.910Z,45.42
2023-04-16T19:47:34.325Z,40.17
2023-04-16T19:50:00.908Z,43.65
2023-04-16T19:52:27.353Z,42.58
2023-04-16T19:54:53.755Z,45.35
2023-04-16T19:57:21.201Z,42.22
2023-04-16T19:59:47.670Z,43.53
2023-04-16T20:02:14.159Z,43.47
2023-04-16T20:04:40.657Z,48.17
2023-04-16T20:07:07.182Z,50.70
2023-04-16T20:09:33.650Z,47.40
2023-04-16T20:12:00.708Z,41.60
2023-04-16T20:14:27.270Z,44.63
2023-04-16T20:16:53.754Z,49.17
2023-04-16T20:19:20.133Z,46.13
2023-04-16T20:21:46.648Z,46.60
2023-04-16T20:24:15.247Z,51.97
2023-04-16T20:26:41.833Z,38.58
2023-04-16T20:29:10.120Z,49.10
2023-04-16T20:31:36.727Z,47.20
2023-04-16T20:34:03.731Z,39.60
2023-04-16T20:36:30.423Z,46.15
2023-04-16T20:38:56.882Z,39.67
2023-04-16T20:41:25.001Z,42.22
2023-04-16T20:43:52.872Z,39.50
2023-04-16T20:46:24.303Z,53.38
2023-04-16T20:48:51.399Z,41.38
2023-04-16T20:51:17.821Z,44.17
2023-04-16T20:53:44.223Z,41.53
2023-04-16T20:56:14.657Z,48.63
2023-04-16T20:58:41.780Z,48.90
2023-04-16T21:01:08.323Z,45.30
2023-04-16T21:03:35.217Z,46.35
2023-04-16T21:06:01.983Z,48.63
2023-04-16T21:08:28.484Z,50.83
2023-04-16T21:10:54.869Z,51.38
2023-04-16T21:13:21.699Z,47.22
2023-04-16T21:15:48.293Z,47.53
2023-04-16T21:18:14.917Z,40.38
2023-04-16T21:20:41.390Z,43.30
2023-04-16T21:23:07.846Z,43.35
2023-04-16T21:25:34.291Z,41.17
2023-04-16T21:28:03.658Z,45.83
2023-04-16T21:30:30.073Z,46.92
2023-04-16T21:32:56.589Z,51.35
2023-04-16T21:35:23.121Z,54.92
2023-04-16T21:37:49.610Z,52.00
2023-04-16T21:40:16.205Z,53.08
2023-04-16T21:42:42.664Z,43.15
2023-04-16T21:45:10.161Z,46.08
2023-04-16T21:47:37.079Z,48.88
2023-04-16T21:50:03.962Z,46.00
2023-04-16T21:52:30.535Z,42.72
2023-04-16T21:54:56.910Z,42.08
2023-04-16T21:57:23.390Z,41.30
2023-04-16T21:59:49.901Z,39.80
2023-04-16T22:02:16.427Z,41.05
2023-04-16T22:04:43.564Z,42.17
2023-04-16T22:07:10.010Z,43.70
2023-04-16T22:09:36.600Z,39.92
2023-04-16T22:12:03.290Z,40.05
2023-04-16T22:14:30.200Z,42.38
2023-04-16T22:16:56.737Z,41.83
2023-04-16T22:19:23.322Z,44.53
2023-04-16T22:21:49.778Z,46.95
2023-04-16T22:24:16.275Z,45.42
2023-04-16T22:26:42.719Z,50.20
2023-04-16T22:29:09.363Z,45.05
2023-04-16T22:31:36.157Z,48.65
2023-04-16T22:34:03.564Z,48.22
2023-04-16T22:36:31.239Z,54.55
2023-04-16T22:38:57.650Z,44.15
2023-04-16T22:41:24.098Z,53.70
2023-04-16T22:43:52.470Z,46.53
2023-04-16T22:46:24.601Z,51.78
2023-04-16T22:48:51.773Z,47.25
2023-04-16T22:51:18.286Z,48.90
2023-04-16T22:53:44.692Z,55.20
2023-04-16T22:56:11.701Z,51.30
2023-04-16T22:58:38.420Z,54.10
2023-04-16T23:01:04.911Z,49.63
2023-04-16T23:03:31.893Z,53.85
2023-04-16T23:05:58.322Z,54.78
2023-04-16T23:08:24.721Z,58.30
2023-04-16T23:10:51.087Z,55.78
2023-04-16T23:13:17.513Z,51.97
2023-04-16T23:15:43.959Z,54.78
2023-04-16T23:18:10.597Z,56.75
2023-04-16T23:20:37.113Z,55.05
2023-04-16T23:23:03.506Z,55.03
2023-04-16T23:25:29.930Z,54.13
2023-04-16T23:27:56.741Z,54.33
2023-04-16T23:30:23.184Z,54.70
2023-04-16T23:32:49.690Z,56.85
2023-04-16T23:35:22.607Z,57.03
2023-04-16T23:37:49.328Z,57.85
2023-04-16T23:40:16.380Z,51.03
2023-04-16T23:42:42.781Z,53.85
2023-04-16T23:45:09.594Z,53.53
2023-04-16T23:47:36.030Z,52.80
2023-04-16T23:50:02.666Z,53.92
2023-04-16T23:52:29.095Z,48.55
2023-04-16T23:54:55.629Z,49.17
2023-04-16T23:57:22.027Z,53.15
2023-04-16T23:59:48.464Z,43.83
